createdAt,value
2022-07-26T00:01:22.800Z,5.53
2022-07-26T00:06:25.938Z,7.57
2022-07-26T00:11:28.801Z,4.80
2022-07-26T00:16:30.640Z,8.90
2022-07-26T00:21:32.503Z,8.80
2022-07-26T00:26:34.321Z,6.18
2022-07-26T00:31:36.098Z,6.97
2022-07-26T00:36:41.828Z,6.32
2022-07-26T00:41:43.714Z,5.45
2022-07-26T00:46:45.500Z,7.32
2022-07-26T00:51:47.260Z,4.00
2022-07-26T00:56:52.114Z,6.90
2022-07-26T01:01:56.780Z,5.93
2022-07-26T01:06:58.748Z,9.48
2022-07-26T01:12:00.285Z,5.93
2022-07-26T01:17:01.798Z,5.97
2022-07-26T01:22:03.501Z,7.80
2022-07-26T01:27:05.104Z,6.72
2022-07-26T01:32:07.099Z,7.15
2022-07-26T01:37:09.193Z,5.38
2022-07-26T01:42:10.632Z,5.43
2022-07-26T01:47:12.369Z,7.78
2022-07-26T01:52:13.858Z,11.15
2022-07-26T01:57:15.380Z,9.70
2022-07-26T02:02:16.956Z,7.40
2022-07-26T02:07:18.478Z,6.18
2022-07-26T02:12:20.298Z,8.43
2022-07-26T02:17:22.151Z,4.68
2022-07-26T02:22:23.962Z,10.02
2022-07-26T02:27:25.523Z,8.80
2022-07-26T02:32:26.986Z,8.73
2022-07-26T02:37:28.464Z,9.15
2022-07-26T02:42:29.990Z,10.32
2022-07-26T02:47:32.967Z,12.18
2022-07-26T02:52:34.432Z,18.15
2022-07-26T02:57:45.522Z,20.05
2022-07-26T03:02:49.598Z,13.95
2022-07-26T03:07:51.052Z,13.43
2022-07-26T03:12:52.547Z,15.15
2022-07-26T03:17:55.255Z,12.20
2022-07-26T03:22:56.712Z,20.50
2022-07-26T03:27:58.219Z,13.18
2022-07-26T03:32:59.701Z,12.82
2022-07-26T03:38:01.149Z,14.20
2022-07-26T03:43:02.886Z,16.30
2022-07-26T03:48:04.876Z,16.95
2022-07-26T03:53:06.379Z,16.67
2022-07-26T03:58:08.146Z,19.45
2022-07-26T04:03:09.589Z,17.33
2022-07-26T04:08:11.543Z,18.10
2022-07-26T04:13:13.072Z,14.90
2022-07-26T04:18:14.665Z,15.15
2022-07-26T04:23:31.258Z,14.35
2022-07-26T04:28:33.291Z,16.58
2022-07-26T04:33:34.924Z,12.77
2022-07-26T04:38:36.612Z,15.70
2022-07-26T04:43:38.114Z,12.23
2022-07-26T04:48:39.682Z,11.90
2022-07-26T04:53:41.155Z,12.02
2022-07-26T04:58:42.646Z,10.75
2022-07-26T05:03:44.095Z,11.95
2022-07-26T05:08:45.697Z,11.02
2022-07-26T05:13:47.150Z,9.70
2022-07-26T05:18:49.226Z,8.27
2022-07-26T05:23:51.019Z,6.80
2022-07-26T05:28:52.548Z,7.47
2022-07-26T05:33:55.154Z,6.22
2022-07-26T05:38:56.733Z,9.85
2022-07-26T05:43:58.901Z,7.65
2022-07-26T05:49:00.458Z,9.75
2022-07-26T05:54:02.268Z,6.93
2022-07-26T05:59:03.864Z,7.68
2022-07-26T06:04:05.682Z,6.00
2022-07-26T06:09:07.429Z,8.27
2022-07-26T06:14:09.361Z,6.20
2022-07-26T06:19:11.133Z,6.63
2022-07-26T06:24:13.097Z,6.90
2022-07-26T06:29:14.550Z,8.90
2022-07-26T06:34:16.363Z,7.50
2022-07-26T06:39:17.823Z,8.05
2022-07-26T06:44:19.290Z,6.38
2022-07-26T06:49:22.679Z,8.55
2022-07-26T06:54:24.623Z,5.65
2022-07-26T06:59:26.224Z,6.35
2022-07-26T07:04:30.012Z,4.47
2022-07-26T07:09:32.967Z,6.32
2022-07-26T07:14:34.620Z,5.57
2022-07-26T07:19:37.202Z,4.97
2022-07-26T07:24:38.948Z,7.30
2022-07-26T07:29:42.140Z,9.85
2022-07-26T07:34:46.006Z,7.20
2022-07-26T07:39:50.684Z,5.88
2022-07-26T07:44:52.762Z,6.30
2022-07-26T07:49:54.249Z,6.85
2022-07-26T07:55:11.637Z,5.68
2022-07-26T08:00:19.314Z,6.00
2022-07-26T08:05:28.528Z,5.38
2022-07-26T08:10:30.356Z,5.82
2022-07-26T08:15:31.899Z,6.45
2022-07-26T08:20:33.392Z,6.35
2022-07-26T08:25:35.270Z,5.93
2022-07-26T08:30:36.742Z,3.53
2022-07-26T08:35:38.224Z,5.13
2022-07-26T08:40:39.773Z,4.57
2022-07-26T08:45:41.344Z,5.68
2022-07-26T08:50:43.380Z,5.18
2022-07-26T08:56:06.015Z,5.68
2022-07-26T09:01:15.085Z,6.22
2022-07-26T09:06:22.107Z,5.32
2022-07-26T09:11:23.750Z,5.25
2022-07-26T09:16:26.108Z,6.03
2022-07-26T09:21:33.230Z,5.03
2022-07-26T09:26:34.712Z,4.63
2022-07-26T09:31:38.014Z,6.55
2022-07-26T09:36:51.654Z,4.85
2022-07-26T09:42:17.437Z,4.28
2022-07-26T09:47:16.161Z,5.00
2022-07-26T09:52:20.949Z,5.75
2022-07-26T09:57:22.401Z,4.75
2022-07-26T10:02:24.420Z,3.97
2022-07-26T10:07:25.995Z,4.35
2022-07-26T10:12:31.817Z,3.05
2022-07-26T10:17:41.796Z,4.82
2022-07-26T10:22:47.243Z,5.45
2022-07-26T10:27:52.775Z,3.17
2022-07-26T10:33:03.055Z,4.93
2022-07-26T10:38:08.823Z,4.10
2022-07-26T10:48:35.497Z,3.75
2022-07-26T10:53:37.094Z,4.50
2022-07-26T10:58:43.355Z,5.50
2022-07-26T11:03:44.934Z,3.92
2022-07-26T11:08:48.532Z,4.47
2022-07-26T11:13:50.093Z,4.35
2022-07-26T11:18:52.422Z,4.40
2022-07-26T11:24:02.526Z,12.52
2022-07-26T11:29:06.715Z,4.63
2022-07-26T11:34:16.925Z,3.10
2022-07-26T11:39:27.171Z,2.95
2022-07-26T11:44:29.027Z,6.30
2022-07-26T11:54:54.514Z,5.80
2022-07-26T12:05:21.089Z,3.80
2022-07-26T13:05:49.300Z,4.65
2022-07-26T13:10:50.837Z,4.90
2022-07-26T13:15:52.354Z,4.55
2022-07-26T13:20:53.962Z,5.93
2022-07-26T13:25:55.406Z,7.70
2022-07-26T13:30:57.585Z,7.15
2022-07-26T13:35:59.127Z,6.30
2022-07-26T13:41:05.121Z,7.55
2022-07-26T13:46:06.814Z,8.02
2022-07-26T13:51:09.141Z,7.03
2022-07-26T13:56:10.610Z,4.72
2022-07-26T14:01:14.240Z,4.80
2022-07-26T14:06:15.694Z,7.28
2022-07-26T14:11:17.165Z,3.25
2022-07-26T14:16:18.711Z,6.88
2022-07-26T14:21:23.476Z,4.80
2022-07-26T14:26:25.961Z,2.92
2022-07-26T14:31:28.796Z,4.25
2022-07-26T14:36:30.347Z,6.07
2022-07-26T14:41:31.919Z,6.63
2022-07-26T14:46:33.516Z,6.25
2022-07-26T14:51:36.420Z,6.28
2022-07-26T14:56:37.921Z,5.82
2022-07-26T15:01:39.711Z,4.03
2022-07-26T15:06:41.449Z,5.65
2022-07-26T15:11:43.092Z,5.18
2022-07-26T15:16:44.648Z,5.10
2022-07-26T15:21:46.178Z,5.68
2022-07-26T15:26:47.677Z,3.45
2022-07-26T15:31:50.450Z,3.72
2022-07-26T15:36:52.077Z,4.13
2022-07-26T15:41:53.635Z,5.18
2022-07-26T15:46:56.594Z,4.00
2022-07-26T15:51:58.165Z,5.63
2022-07-26T15:56:59.725Z,5.30
2022-07-26T16:02:01.297Z,4.40
2022-07-26T16:07:02.843Z,3.45
2022-07-26T16:12:06.263Z,4.22
2022-07-26T16:17:08.017Z,5.38
2022-07-26T16:22:09.525Z,4.25
2022-07-26T16:27:10.969Z,4.75
2022-07-26T16:32:12.628Z,4.00
2022-07-26T16:37:14.236Z,2.97
2022-07-26T16:42:15.673Z,3.88
2022-07-26T16:47:17.297Z,3.63
2022-07-26T16:52:18.932Z,7.28
2022-07-26T16:57:20.445Z,4.97
2022-07-26T17:02:22.105Z,4.70
2022-07-26T17:07:25.359Z,5.50
2022-07-26T17:12:27.604Z,6.15
2022-07-26T17:17:29.246Z,5.47
2022-07-26T17:22:30.714Z,5.22
2022-07-26T17:27:32.427Z,5.00
2022-07-26T17:32:34.475Z,3.83
2022-07-26T17:37:36.453Z,4.40
2022-07-26T17:42:39.031Z,5.13
2022-07-26T17:47:41.455Z,6.00
2022-07-26T17:52:43.035Z,6.10
2022-07-26T17:57:44.654Z,2.83
2022-07-26T18:02:46.910Z,4.28
2022-07-26T18:07:48.867Z,4.60
2022-07-26T18:12:50.440Z,2.38
2022-07-26T18:17:51.958Z,3.78
2022-07-26T18:22:54.648Z,2.08
2022-07-26T18:27:56.142Z,3.60
2022-07-26T19:48:24.905Z,6.45
2022-07-26T19:53:26.581Z,5.28
2022-07-26T19:58:29.192Z,2.97
2022-07-26T20:03:31.925Z,2.95
2022-07-26T20:08:33.560Z,3.63
2022-07-26T20:13:35.394Z,2.38
2022-07-26T20:18:36.952Z,6.07
2022-07-26T20:23:38.467Z,5.03
2022-07-26T20:28:41.169Z,3.38
2022-07-26T20:33:42.652Z,5.00
2022-07-26T20:38:48.180Z,4.65
2022-07-26T20:43:53.080Z,5.50
2022-07-26T20:48:58.343Z,2.30
2022-07-26T20:54:00.448Z,5.38
2022-07-26T20:59:04.812Z,4.20
2022-07-26T21:04:06.544Z,2.72
2022-07-26T21:09:10.047Z,5.05
2022-07-26T21:14:12.084Z,2.17
2022-07-26T21:19:14.011Z,2.33
2022-07-26T21:24:15.741Z,3.05
2022-07-26T21:29:17.342Z,3.25
2022-07-26T21:34:19.024Z,2.92
2022-07-26T21:39:20.885Z,2.47
2022-07-26T21:44:22.376Z,2.75
2022-07-26T21:49:23.860Z,2.47
2022-07-26T21:54:25.705Z,2.53
2022-07-26T21:59:27.227Z,2.00
2022-07-26T22:04:28.857Z,4.25
2022-07-26T22:09:30.369Z,2.22
2022-07-26T22:14:31.805Z,2.85
2022-07-26T22:19:33.265Z,2.35
2022-07-26T22:24:34.791Z,2.22
2022-07-26T22:29:40.039Z,2.17
2022-07-26T22:34:41.904Z,2.30
2022-07-26T22:39:43.410Z,1.85
2022-07-26T22:44:44.845Z,3.20
2022-07-26T22:49:46.305Z,4.78
2022-07-26T22:54:47.761Z,2.55
2022-07-26T22:59:49.255Z,2.78
2022-07-26T23:04:50.691Z,3.95
2022-07-26T23:09:52.142Z,3.05
2022-07-26T23:14:53.745Z,2.22
2022-07-26T23:19:55.294Z,3.08
2022-07-26T23:24:56.753Z,2.15
2022-07-26T23:29:58.185Z,2.20
2022-07-26T23:34:59.637Z,2.90
2022-07-26T23:40:01.408Z,3.08
2022-07-26T23:45:03.830Z,1.67
2022-07-26T23:50:06.032Z,2.22
2022-07-26T23:55:08.240Z,2.20
